sensor_id;sensor_type;location;lat;lon;timestamp;P1;durP1;ratioP1;P2;durP2;ratioP2
62110;SDS011;48102;47.526;19.072;2024-02-15T04:43:39;21.05;;;12.70;;
62110;SDS011;48102;47.526;19.072;2024-02-15T04:46:43;18.58;;;11.45;;
62110;SDS011;48102;47.526;19.072;2024-02-15T04:49:48;19.60;;;12.60;;
62110;SDS011;48102;47.526;19.072;2024-02-15T04:52:51;14.07;;;9.65;;
62110;SDS011;48102;47.526;19.072;2024-02-15T04:55:53;21.62;;;10.73;;
62110;SDS011;48102;47.526;19.072;2024-02-15T04:58:57;18.30;;;10.00;;
62110;SDS011;48102;47.526;19.072;2024-02-15T05:02:00;16.30;;;10.70;;
62110;SDS011;48102;47.526;19.072;2024-02-15T05:05:03;20.12;;;11.70;;
62110;SDS011;48102;47.526;19.072;2024-02-15T05:11:12;15.30;;;10.38;;
62110;SDS011;48102;47.526;19.072;2024-02-15T05:14:20;17.73;;;11.38;;
62110;SDS011;48102;47.526;19.072;2024-02-15T05:17:23;17.95;;;11.57;;
62110;SDS011;48102;47.526;19.072;2024-02-15T05:20:26;18.67;;;11.70;;
62110;SDS011;48102;47.526;19.072;2024-02-15T05:23:29;16.77;;;10.80;;
62110;SDS011;48102;47.526;19.072;2024-02-15T05:26:32;22.02;;;12.02;;
62110;SDS011;48102;47.526;19.072;2024-02-15T05:29:35;16.85;;;11.68;;
62110;SDS011;48102;47.526;19.072;2024-02-15T05:32:39;18.10;;;12.02;;
62110;SDS011;48102;47.526;19.072;2024-02-15T05:35:46;20.23;;;12.77;;
62110;SDS011;48102;47.526;19.072;2024-02-15T05:38:52;22.40;;;12.60;;
62110;SDS011;48102;47.526;19.072;2024-02-15T05:41:56;17.37;;;12.30;;
62110;SDS011;48102;47.526;19.072;2024-02-15T05:48:44;18.85;;;13.27;;
62110;SDS011;48102;47.526;19.072;2024-02-15T05:51:47;18.80;;;12.23;;
62110;SDS011;48102;47.526;19.072;2024-02-15T05:54:51;19.92;;;12.77;;
62110;SDS011;48102;47.526;19.072;2024-02-15T05:57:54;17.90;;;13.68;;
62110;SDS011;48102;47.526;19.072;2024-02-15T06:00:57;21.52;;;12.07;;
62110;SDS011;48102;47.526;19.072;2024-02-15T06:04:04;18.83;;;12.63;;
62110;SDS011;48102;47.526;19.072;2024-02-15T06:07:10;24.87;;;12.50;;
62110;SDS011;48102;47.526;19.072;2024-02-15T06:16:20;14.70;;;11.52;;
62110;SDS011;48102;47.526;19.072;2024-02-15T06:19:24;19.20;;;12.52;;
62110;SDS011;48102;47.526;19.072;2024-02-15T06:22:27;22.40;;;12.95;;
62110;SDS011;48102;47.526;19.072;2024-02-15T06:28:34;16.62;;;12.50;;
62110;SDS011;48102;47.526;19.072;2024-02-15T06:31:55;18.17;;;12.20;;
62110;SDS011;48102;47.526;19.072;2024-02-15T06:35:17;19.27;;;12.93;;
62110;SDS011;48102;47.526;19.072;2024-02-15T06:38:38;18.05;;;12.07;;
62110;SDS011;48102;47.526;19.072;2024-02-15T06:42:00;28.10;;;13.00;;
62110;SDS011;48102;47.526;19.072;2024-02-15T06:45:06;20.30;;;13.07;;
62110;SDS011;48102;47.526;19.072;2024-02-15T06:48:10;16.87;;;12.82;;
62110;SDS011;48102;47.526;19.072;2024-02-15T06:51:13;17.92;;;11.95;;
62110;SDS011;48102;47.526;19.072;2024-02-15T06:54:18;18.33;;;12.25;;
62110;SDS011;48102;47.526;19.072;2024-02-15T06:57:21;21.52;;;12.95;;
62110;SDS011;48102;47.526;19.072;2024-02-15T07:00:23;21.12;;;12.63;;
62110;SDS011;48102;47.526;19.072;2024-02-15T07:03:28;19.33;;;12.57;;
62110;SDS011;48102;47.526;19.072;2024-02-15T07:06:32;16.27;;;12.07;;
62110;SDS011;48102;47.526;19.072;2024-02-15T07:09:37;18.37;;;12.85;;
62110;SDS011;48102;47.526;19.072;2024-02-15T07:12:40;27.42;;;13.80;;
62110;SDS011;48102;47.526;19.072;2024-02-15T07:15:46;26.17;;;13.23;;
62110;SDS011;48102;47.526;19.072;2024-02-15T07:18:49;24.23;;;13.77;;
62110;SDS011;48102;47.526;19.072;2024-02-15T07:21:52;14.48;;;11.38;;
62110;SDS011;48102;47.526;19.072;2024-02-15T07:27:58;19.17;;;11.97;;
62110;SDS011;48102;47.526;19.072;2024-02-15T07:34:05;20.83;;;12.45;;
62110;SDS011;48102;47.526;19.072;2024-02-15T07:37:08;21.85;;;14.43;;
62110;SDS011;48102;47.526;19.072;2024-02-15T07:40:11;20.05;;;13.23;;
62110;SDS011;48102;47.526;19.072;2024-02-15T07:43:16;20.50;;;13.45;;
62110;SDS011;48102;47.526;19.072;2024-02-15T07:46:19;19.77;;;14.40;;
62110;SDS011;48102;47.526;19.072;2024-02-15T07:49:22;18.85;;;13.13;;
62110;SDS011;48102;47.526;19.072;2024-02-15T07:52:25;19.92;;;12.98;;
62110;SDS011;48102;47.526;19.072;2024-02-15T07:55:29;19.70;;;12.98;;
62110;SDS011;48102;47.526;19.072;2024-02-15T07:58:31;17.15;;;13.35;;
62110;SDS011;48102;47.526;19.072;2024-02-15T08:01:34;24.15;;;13.38;;
62110;SDS011;48102;47.526;19.072;2024-02-15T08:04:38;21.98;;;13.75;;
62110;SDS011;48102;47.526;19.072;2024-02-15T08:07:44;26.08;;;14.63;;
62110;SDS011;48102;47.526;19.072;2024-02-15T08:10:47;20.58;;;12.85;;
62110;SDS011;48102;47.526;19.072;2024-02-15T08:13:53;19.85;;;13.57;;
62110;SDS011;48102;47.526;19.072;2024-02-15T08:16:57;19.33;;;13.88;;
62110;SDS011;48102;47.526;19.072;2024-02-15T08:20:00;28.33;;;14.95;;
62110;SDS011;48102;47.526;19.072;2024-02-15T08:23:05;19.25;;;13.82;;
62110;SDS011;48102;47.526;19.072;2024-02-15T08:29:13;30.62;;;13.15;;
62110;SDS011;48102;47.526;19.072;2024-02-15T08:32:17;19.35;;;13.38;;
62110;SDS011;48102;47.526;19.072;2024-02-15T08:35:22;19.52;;;13.07;;
62110;SDS011;48102;47.526;19.072;2024-02-15T08:41:28;21.33;;;15.30;;
62110;SDS011;48102;47.526;19.072;2024-02-15T08:47:37;20.95;;;14.30;;
62110;SDS011;48102;47.526;19.072;2024-02-15T08:50:41;21.80;;;14.82;;
62110;SDS011;48102;47.526;19.072;2024-02-15T08:53:44;23.35;;;15.23;;
62110;SDS011;48102;47.526;19.072;2024-02-15T08:56:47;20.73;;;14.20;;
62110;SDS011;48102;47.526;19.072;2024-02-15T09:02:57;25.80;;;14.90;;
62110;SDS011;48102;47.526;19.072;2024-02-15T09:09:06;24.08;;;14.85;;
62110;SDS011;48102;47.526;19.072;2024-02-15T09:12:09;25.30;;;14.77;;
62110;SDS011;48102;47.526;19.072;2024-02-15T09:15:12;23.62;;;14.75;;
62110;SDS011;48102;47.526;19.072;2024-02-15T09:18:16;24.12;;;15.63;;
62110;SDS011;48102;47.526;19.072;2024-02-15T09:21:25;20.90;;;14.48;;
62110;SDS011;48102;47.526;19.072;2024-02-15T09:24:31;19.45;;;13.88;;
62110;SDS011;48102;47.526;19.072;2024-02-15T09:27:35;42.38;;;16.27;;
62110;SDS011;48102;47.526;19.072;2024-02-15T09:30:41;21.15;;;14.80;;
62110;SDS011;48102;47.526;19.072;2024-02-15T09:33:44;21.27;;;14.93;;
62110;SDS011;48102;47.526;19.072;2024-02-15T09:36:50;23.67;;;13.48;;
62110;SDS011;48102;47.526;19.072;2024-02-15T09:39:53;26.08;;;14.75;;
62110;SDS011;48102;47.526;19.072;2024-02-15T09:42:59;22.40;;;15.38;;
62110;SDS011;48102;47.526;19.072;2024-02-15T09:46:02;23.45;;;14.98;;
62110;SDS011;48102;47.526;19.072;2024-02-15T09:49:07;26.48;;;15.70;;
62110;SDS011;48102;47.526;19.072;2024-02-15T09:52:10;25.90;;;13.70;;
62110;SDS011;48102;47.526;19.072;2024-02-15T09:55:18;18.60;;;13.77;;
62110;SDS011;48102;47.526;19.072;2024-02-15T09:58:25;26.10;;;15.60;;
62110;SDS011;48102;47.526;19.072;2024-02-15T10:04:34;20.55;;;14.10;;
62110;SDS011;48102;47.526;19.072;2024-02-15T10:07:40;20.50;;;14.45;;
62110;SDS011;48102;47.526;19.072;2024-02-15T10:10:47;22.62;;;13.32;;
62110;SDS011;48102;47.526;19.072;2024-02-15T10:13:50;23.80;;;13.62;;
62110;SDS011;48102;47.526;19.072;2024-02-15T10:16:53;18.58;;;13.73;;
62110;SDS011;48102;47.526;19.072;2024-02-15T10:20:03;20.05;;;14.07;;
62110;SDS011;48102;47.526;19.072;2024-02-15T10:26:19;17.87;;;13.48;;
62110;SDS011;48102;47.526;19.072;2024-02-15T10:29:25;17.35;;;12.98;;
62110;SDS011;48102;47.526;19.072;2024-02-15T10:32:34;24.40;;;13.60;;
62110;SDS011;48102;47.526;19.072;2024-02-15T10:35:38;27.58;;;14.15;;
62110;SDS011;48102;47.526;19.072;2024-02-15T10:38:41;17.17;;;13.00;;
62110;SDS011;48102;47.526;19.072;2024-02-15T10:41:48;20.50;;;14.05;;
62110;SDS011;48102;47.526;19.072;2024-02-15T10:44:52;20.25;;;13.52;;
62110;SDS011;48102;47.526;19.072;2024-02-15T10:47:56;22.17;;;13.88;;
62110;SDS011;48102;47.526;19.072;2024-02-15T10:50:59;18.48;;;13.93;;
62110;SDS011;48102;47.526;19.072;2024-02-15T10:54:06;17.48;;;12.50;;
62110;SDS011;48102;47.526;19.072;2024-02-15T10:57:14;17.90;;;12.70;;
62110;SDS011;48102;47.526;19.072;2024-02-15T11:00:25;19.40;;;13.15;;
62110;SDS011;48102;47.526;19.072;2024-02-15T11:03:39;17.52;;;13.07;;
62110;SDS011;48102;47.526;19.072;2024-02-15T11:06:50;20.12;;;13.43;;
62110;SDS011;48102;47.526;19.072;2024-02-15T11:09:58;19.42;;;13.60;;
62110;SDS011;48102;47.526;19.072;2024-02-15T11:13:02;21.62;;;13.32;;
62110;SDS011;48102;47.526;19.072;2024-02-15T11:16:06;19.15;;;13.98;;
62110;SDS011;48102;47.526;19.072;2024-02-15T11:19:09;18.83;;;13.27;;
62110;SDS011;48102;47.526;19.072;2024-02-15T11:22:14;23.67;;;13.98;;
62110;SDS011;48102;47.526;19.072;2024-02-15T11:25:18;19.73;;;13.32;;
62110;SDS011;48102;47.526;19.072;2024-02-15T11:28:35;21.48;;;12.77;;
62110;SDS011;48102;47.526;19.072;2024-02-15T11:31:55;20.33;;;13.45;;
62110;SDS011;48102;47.526;19.072;2024-02-15T11:35:16;20.48;;;13.40;;
62110;SDS011;48102;47.526;19.072;2024-02-15T11:38:29;19.30;;;13.45;;
62110;SDS011;48102;47.526;19.072;2024-02-15T11:41:32;19.77;;;13.25;;
62110;SDS011;48102;47.526;19.072;2024-02-15T11:44:35;18.40;;;13.23;;
62110;SDS011;48102;47.526;19.072;2024-02-15T11:47:39;18.27;;;14.87;;
62110;SDS011;48102;47.526;19.072;2024-02-15T11:50:45;18.50;;;13.25;;
62110;SDS011;48102;47.526;19.072;2024-02-15T11:53:57;23.87;;;13.60;;
62110;SDS011;48102;47.526;19.072;2024-02-15T11:57:02;21.25;;;13.68;;
62110;SDS011;48102;47.526;19.072;2024-02-15T12:00:18;17.00;;;11.38;;
62110;SDS011;48102;47.526;19.072;2024-02-15T12:03:52;15.50;;;11.57;;
62110;SDS011;48102;47.526;19.072;2024-02-15T12:07:14;15.88;;;11.82;;
62110;SDS011;48102;47.526;19.072;2024-02-15T12:10:36;19.50;;;13.20;;
62110;SDS011;48102;47.526;19.072;2024-02-15T12:14:19;18.93;;;12.03;;
62110;SDS011;48102;47.526;19.072;2024-02-15T12:17:41;15.95;;;11.82;;
62110;SDS011;48102;47.526;19.072;2024-02-15T12:21:02;13.48;;;11.23;;
62110;SDS011;48102;47.526;19.072;2024-02-15T12:24:07;15.35;;;10.93;;
62110;SDS011;48102;47.526;19.072;2024-02-15T12:27:10;20.12;;;12.57;;
62110;SDS011;48102;47.526;19.072;2024-02-15T12:30:16;17.20;;;10.02;;
62110;SDS011;48102;47.526;19.072;2024-02-15T12:33:28;15.40;;;10.77;;
62110;SDS011;48102;47.526;19.072;2024-02-15T12:36:35;13.93;;;10.13;;
62110;SDS011;48102;47.526;19.072;2024-02-15T12:39:40;12.65;;;9.90;;
62110;SDS011;48102;47.526;19.072;2024-02-15T12:42:44;15.00;;;9.75;;
62110;SDS011;48102;47.526;19.072;2024-02-15T12:45:47;13.68;;;8.57;;
62110;SDS011;48102;47.526;19.072;2024-02-15T12:48:51;12.63;;;9.00;;
62110;SDS011;48102;47.526;19.072;2024-02-15T12:52:32;14.85;;;10.32;;
62110;SDS011;48102;47.526;19.072;2024-02-15T12:55:41;12.07;;;9.45;;
62110;SDS011;48102;47.526;19.072;2024-02-15T12:58:44;15.07;;;10.75;;
62110;SDS011;48102;47.526;19.072;2024-02-15T13:01:47;13.70;;;9.45;;
62110;SDS011;48102;47.526;19.072;2024-02-15T13:04:50;13.45;;;9.73;;
62110;SDS011;48102;47.526;19.072;2024-02-15T13:07:54;16.10;;;10.10;;
62110;SDS011;48102;47.526;19.072;2024-02-15T13:10:58;12.77;;;9.20;;
62110;SDS011;48102;47.526;19.072;2024-02-15T13:17:03;12.27;;;10.13;;
62110;SDS011;48102;47.526;19.072;2024-02-15T13:23:13;15.23;;;8.98;;
62110;SDS011;48102;47.526;19.072;2024-02-15T13:26:18;13.70;;;9.73;;
62110;SDS011;48102;47.526;19.072;2024-02-15T13:29:22;13.57;;;9.95;;
62110;SDS011;48102;47.526;19.072;2024-02-15T13:32:25;12.90;;;8.77;;
62110;SDS011;48102;47.526;19.072;2024-02-15T13:35:31;14.87;;;9.60;;
62110;SDS011;48102;47.526;19.072;2024-02-15T13:38:34;13.48;;;9.50;;
62110;SDS011;48102;47.526;19.072;2024-02-15T13:41:39;21.27;;;9.52;;
62110;SDS011;48102;47.526;19.072;2024-02-15T13:47:45;13.32;;;9.15;;
62110;SDS011;48102;47.526;19.072;2024-02-15T13:50:54;11.52;;;8.38;;
62110;SDS011;48102;47.526;19.072;2024-02-15T13:53:57;13.60;;;8.82;;
62110;SDS011;48102;47.526;19.072;2024-02-15T13:57:00;11.95;;;7.72;;
62110;SDS011;48102;47.526;19.072;2024-02-15T14:00:04;10.95;;;7.60;;
62110;SDS011;48102;47.526;19.072;2024-02-15T14:03:13;14.63;;;7.85;;
62110;SDS011;48102;47.526;19.072;2024-02-15T14:06:18;18.00;;;8.93;;
62110;SDS011;48102;47.526;19.072;2024-02-15T14:09:21;10.80;;;7.95;;
62110;SDS011;48102;47.526;19.072;2024-02-15T14:12:28;12.85;;;8.90;;
62110;SDS011;48102;47.526;19.072;2024-02-15T14:18:42;12.88;;;8.02;;
62110;SDS011;48102;47.526;19.072;2024-02-15T14:21:47;15.88;;;9.55;;
62110;SDS011;48102;47.526;19.072;2024-02-15T14:27:54;13.25;;;8.95;;
62110;SDS011;48102;47.526;19.072;2024-02-15T14:30:57;14.60;;;9.23;;
62110;SDS011;48102;47.526;19.072;2024-02-15T14:34:18;15.68;;;9.57;;
62110;SDS011;48102;47.526;19.072;2024-02-15T14:37:23;14.32;;;9.65;;
62110;SDS011;48102;47.526;19.072;2024-02-15T14:43:45;12.70;;;9.75;;
62110;SDS011;48102;47.526;19.072;2024-02-15T14:46:48;11.57;;;8.98;;
62110;SDS011;48102;47.526;19.072;2024-02-15T14:52:54;13.68;;;9.63;;
62110;SDS011;48102;47.526;19.072;2024-02-15T14:55:58;12.80;;;10.43;;
62110;SDS011;48102;47.526;19.072;2024-02-15T14:59:01;11.45;;;9.30;;
62110;SDS011;48102;47.526;19.072;2024-02-15T15:02:06;15.45;;;10.25;;
62110;SDS011;48102;47.526;19.072;2024-02-15T15:05:14;13.35;;;10.10;;
62110;SDS011;48102;47.526;19.072;2024-02-15T15:08:37;13.48;;;9.75;;
62110;SDS011;48102;47.526;19.072;2024-02-15T15:11:58;15.90;;;9.90;;
62110;SDS011;48102;47.526;19.072;2024-02-15T15:15:21;12.68;;;9.82;;
62110;SDS011;48102;47.526;19.072;2024-02-15T15:18:25;15.07;;;10.27;;
62110;SDS011;48102;47.526;19.072;2024-02-15T15:21:29;17.60;;;10.07;;
62110;SDS011;48102;47.526;19.072;2024-02-15T15:24:34;13.20;;;9.68;;
62110;SDS011;48102;47.526;19.072;2024-02-15T15:27:37;16.35;;;10.30;;
62110;SDS011;48102;47.526;19.072;2024-02-15T15:30:42;14.35;;;10.48;;
62110;SDS011;48102;47.526;19.072;2024-02-15T15:33:51;15.40;;;9.98;;
62110;SDS011;48102;47.526;19.072;2024-02-15T15:36:56;14.68;;;9.35;;
62110;SDS011;48102;47.526;19.072;2024-02-15T15:40:02;15.95;;;10.55;;
62110;SDS011;48102;47.526;19.072;2024-02-15T15:43:05;17.85;;;11.12;;
62110;SDS011;48102;47.526;19.072;2024-02-15T15:49:18;11.12;;;9.45;;
62110;SDS011;48102;47.526;19.072;2024-02-15T15:52:21;17.33;;;11.15;;
62110;SDS011;48102;47.526;19.072;2024-02-15T15:55:24;15.55;;;10.75;;
62110;SDS011;48102;47.526;19.072;2024-02-15T15:58:26;17.65;;;10.73;;
62110;SDS011;48102;47.526;19.072;2024-02-15T16:01:29;17.55;;;10.68;;
62110;SDS011;48102;47.526;19.072;2024-02-15T16:04:32;14.25;;;11.02;;
62110;SDS011;48102;47.526;19.072;2024-02-15T16:07:36;15.52;;;10.30;;
62110;SDS011;48102;47.526;19.072;2024-02-15T16:13:43;16.17;;;9.80;;
62110;SDS011;48102;47.526;19.072;2024-02-15T16:16:48;19.67;;;10.57;;
62110;SDS011;48102;47.526;19.072;2024-02-15T16:19:50;14.02;;;10.73;;
62110;SDS011;48102;47.526;19.072;2024-02-15T16:22:54;18.23;;;11.77;;
62110;SDS011;48102;47.526;19.072;2024-02-15T16:25:57;14.75;;;11.05;;
